map of SWY home
SWY - Airport
Location
City:  Sitiawan, Perak, Malaysia
ICAO:WMBA
IATA:SWY

Details
Type:Airport (Aerodrome, Airfield)
Latitude:412'59"N (4.216389)
Longitude:10041'55"E (100.698611)
Elevation:25 ft (8 m)
Variation:0.12W (WMM2015 magnetic declination)
0.01 annual change
Runways:1
Longest:1801 × 226 ft (549 × 69 m)

Time
Time Zone:UTC+8
Local Time:

Weather
METAR:WMBA 152000Z 00000KT 8000 FEW008 SCT150 BKN280 25/24 Q1010

Related Locations
Nearby:
Farthest:LOH: 12446 mi / 20029 km
Loja (La Toma) [Ciudad de Catamayo Airport (Camilo Ponce Enriquez Airport)], L, EC

Find:

   beyond  
but within

Other Information
Maps:
NOTAMs:
Links:
Sources:

  
  • flag of Malaysia
  • flag of Perak
  

Sectional Chart

Flight Planning
at skyvector.com

Satellite Image

Google Maps Satellite view

 

Copyright © 2004-2018 Karl L. Swartz. All rights reserved.
The Great Circle Mapper name and logo are trademarks of the Great Circle Mapper.
All other trademarks mentioned herein belong to their respective owners.
Please see credits for attibutions and further copyright information.

  Follow gcmap on Facebook Follow gcmap on Twitter Follow gcmap on Google+ GCmap on LinkedIn

hCard Microformat

Geo Microformat